sensor_id;sensor_type;location;lat;lon;timestamp;temperature;humidity
37646;DHT22;23489;49.600;6.138;2022-10-31T00:01:36;10.00;99.90
37646;DHT22;23489;49.600;6.138;2022-10-31T00:04:03;9.90;99.90
37646;DHT22;23489;49.600;6.138;2022-10-31T00:06:29;9.90;99.90
37646;DHT22;23489;49.600;6.138;2022-10-31T00:08:58;9.90;99.90
37646;DHT22;23489;49.600;6.138;2022-10-31T00:11:24;9.90;99.90
37646;DHT22;23489;49.600;6.138;2022-10-31T00:13:50;9.90;99.90
37646;DHT22;23489;49.600;6.138;2022-10-31T00:16:21;10.00;99.90
37646;DHT22;23489;49.600;6.138;2022-10-31T00:18:49;10.00;99.90
37646;DHT22;23489;49.600;6.138;2022-10-31T00:21:14;10.00;99.90
37646;DHT22;23489;49.600;6.138;2022-10-31T00:23:40;10.00;99.90
37646;DHT22;23489;49.600;6.138;2022-10-31T00:26:06;10.10;99.90
37646;DHT22;23489;49.600;6.138;2022-10-31T00:28:32;10.10;99.90
37646;DHT22;23489;49.600;6.138;2022-10-31T00:31:03;10.10;99.90
37646;DHT22;23489;49.600;6.138;2022-10-31T00:33:29;10.20;99.90
37646;DHT22;23489;49.600;6.138;2022-10-31T00:35:55;10.20;99.90
37646;DHT22;23489;49.600;6.138;2022-10-31T00:38:21;10.20;99.90
37646;DHT22;23489;49.600;6.138;2022-10-31T00:40:47;10.20;99.90
37646;DHT22;23489;49.600;6.138;2022-10-31T00:43:12;10.20;99.90
37646;DHT22;23489;49.600;6.138;2022-10-31T00:45:38;10.20;99.90
37646;DHT22;23489;49.600;6.138;2022-10-31T00:48:04;10.20;99.90
37646;DHT22;23489;49.600;6.138;2022-10-31T00:50:30;10.20;99.90
37646;DHT22;23489;49.600;6.138;2022-10-31T00:52:56;10.30;99.90
37646;DHT22;23489;49.600;6.138;2022-10-31T00:55:23;10.30;99.90
37646;DHT22;23489;49.600;6.138;2022-10-31T00:57:49;10.30;99.90
37646;DHT22;23489;49.600;6.138;2022-10-31T01:00:15;10.30;99.90
37646;DHT22;23489;49.600;6.138;2022-10-31T01:02:41;10.30;99.90
37646;DHT22;23489;49.600;6.138;2022-10-31T01:05:07;10.40;99.90
37646;DHT22;23489;49.600;6.138;2022-10-31T01:07:37;10.40;99.90
37646;DHT22;23489;49.600;6.138;2022-10-31T01:10:05;10.30;99.90
37646;DHT22;23489;49.600;6.138;2022-10-31T01:12:45;10.30;99.90
37646;DHT22;23489;49.600;6.138;2022-10-31T01:15:16;10.20;99.90
37646;DHT22;23489;49.600;6.138;2022-10-31T01:17:42;10.20;99.90
37646;DHT22;23489;49.600;6.138;2022-10-31T01:20:11;10.20;99.90
37646;DHT22;23489;49.600;6.138;2022-10-31T01:22:37;10.30;99.90
37646;DHT22;23489;49.600;6.138;2022-10-31T01:25:03;10.20;99.90
37646;DHT22;23489;49.600;6.138;2022-10-31T01:27:29;10.30;99.90
37646;DHT22;23489;49.600;6.138;2022-10-31T01:29:55;10.30;99.90
37646;DHT22;23489;49.600;6.138;2022-10-31T01:32:21;10.30;99.90
37646;DHT22;23489;49.600;6.138;2022-10-31T01:34:49;10.20;99.90
37646;DHT22;23489;49.600;6.138;2022-10-31T01:37:14;10.20;99.90
37646;DHT22;23489;49.600;6.138;2022-10-31T01:39:40;10.20;99.90
37646;DHT22;23489;49.600;6.138;2022-10-31T01:42:06;10.20;99.90
37646;DHT22;23489;49.600;6.138;2022-10-31T01:46:59;10.20;99.90
37646;DHT22;23489;49.600;6.138;2022-10-31T01:52:00;10.20;99.90
37646;DHT22;23489;49.600;6.138;2022-10-31T01:54:33;10.20;99.90
37646;DHT22;23489;49.600;6.138;2022-10-31T01:57:02;10.20;99.90
37646;DHT22;23489;49.600;6.138;2022-10-31T01:59:30;10.30;99.90
37646;DHT22;23489;49.600;6.138;2022-10-31T02:01:57;10.30;99.90
37646;DHT22;23489;49.600;6.138;2022-10-31T02:04:24;10.30;99.90
37646;DHT22;23489;49.600;6.138;2022-10-31T02:07:00;10.30;99.90
37646;DHT22;23489;49.600;6.138;2022-10-31T02:09:30;10.40;99.90
37646;DHT22;23489;49.600;6.138;2022-10-31T02:11:58;10.40;99.90
37646;DHT22;23489;49.600;6.138;2022-10-31T02:14:27;10.40;99.90
37646;DHT22;23489;49.600;6.138;2022-10-31T02:16:54;10.50;99.90
37646;DHT22;23489;49.600;6.138;2022-10-31T02:19:49;10.50;99.90
37646;DHT22;23489;49.600;6.138;2022-10-31T02:22:47;10.50;99.90
37646;DHT22;23489;49.600;6.138;2022-10-31T02:31:16;10.60;99.90
37646;DHT22;23489;49.600;6.138;2022-10-31T02:33:50;10.60;99.90
37646;DHT22;23489;49.600;6.138;2022-10-31T02:36:31;10.60;99.90
37646;DHT22;23489;49.600;6.138;2022-10-31T02:39:24;10.60;99.90
37646;DHT22;23489;49.600;6.138;2022-10-31T02:41:59;10.60;99.90
37646;DHT22;23489;49.600;6.138;2022-10-31T02:47:26;10.50;99.90
37646;DHT22;23489;49.600;6.138;2022-10-31T02:52:26;10.50;99.90
37646;DHT22;23489;49.600;6.138;2022-10-31T02:54:53;10.50;99.90
37646;DHT22;23489;49.600;6.138;2022-10-31T02:57:31;10.50;99.90
37646;DHT22;23489;49.600;6.138;2022-10-31T03:00:05;10.40;99.90
37646;DHT22;23489;49.600;6.138;2022-10-31T03:05:11;10.40;99.90
37646;DHT22;23489;49.600;6.138;2022-10-31T03:10:54;10.40;99.90
37646;DHT22;23489;49.600;6.138;2022-10-31T03:19:10;10.40;99.90
37646;DHT22;23489;49.600;6.138;2022-10-31T03:21:43;10.40;99.90
37646;DHT22;23489;49.600;6.138;2022-10-31T03:24:11;10.40;99.90
37646;DHT22;23489;49.600;6.138;2022-10-31T03:26:46;10.40;99.90
37646;DHT22;23489;49.600;6.138;2022-10-31T03:29:16;10.40;99.90
37646;DHT22;23489;49.600;6.138;2022-10-31T03:31:54;10.40;99.90
37646;DHT22;23489;49.600;6.138;2022-10-31T03:34:22;10.40;99.90
37646;DHT22;23489;49.600;6.138;2022-10-31T03:36:51;10.30;99.90
37646;DHT22;23489;49.600;6.138;2022-10-31T03:39:20;10.30;99.90
37646;DHT22;23489;49.600;6.138;2022-10-31T03:41:53;10.20;99.90
37646;DHT22;23489;49.600;6.138;2022-10-31T03:44:21;10.20;99.90
37646;DHT22;23489;49.600;6.138;2022-10-31T03:46:56;10.20;99.90
37646;DHT22;23489;49.600;6.138;2022-10-31T03:49:22;10.30;99.90
37646;DHT22;23489;49.600;6.138;2022-10-31T03:52:07;10.30;99.90
37646;DHT22;23489;49.600;6.138;2022-10-31T03:54:43;10.30;99.90
37646;DHT22;23489;49.600;6.138;2022-10-31T03:57:26;10.30;99.90
37646;DHT22;23489;49.600;6.138;2022-10-31T04:00:05;10.30;99.90
37646;DHT22;23489;49.600;6.138;2022-10-31T04:02:34;10.30;99.90
37646;DHT22;23489;49.600;6.138;2022-10-31T04:05:00;10.30;99.90
37646;DHT22;23489;49.600;6.138;2022-10-31T04:07:33;10.30;99.90
37646;DHT22;23489;49.600;6.138;2022-10-31T04:10:02;10.30;99.90
37646;DHT22;23489;49.600;6.138;2022-10-31T04:12:31;10.30;99.90
37646;DHT22;23489;49.600;6.138;2022-10-31T04:15:14;10.30;99.90
37646;DHT22;23489;49.600;6.138;2022-10-31T04:17:42;10.30;99.90
37646;DHT22;23489;49.600;6.138;2022-10-31T04:20:10;10.20;99.90
37646;DHT22;23489;49.600;6.138;2022-10-31T04:22:36;10.20;99.90
37646;DHT22;23489;49.600;6.138;2022-10-31T04:25:01;10.10;99.90
37646;DHT22;23489;49.600;6.138;2022-10-31T04:27:27;10.10;99.90
37646;DHT22;23489;49.600;6.138;2022-10-31T04:29:53;10.10;99.90
37646;DHT22;23489;49.600;6.138;2022-10-31T04:32:18;10.00;99.90
37646;DHT22;23489;49.600;6.138;2022-10-31T04:34:44;10.00;99.90
37646;DHT22;23489;49.600;6.138;2022-10-31T04:37:10;10.00;99.90
37646;DHT22;23489;49.600;6.138;2022-10-31T04:39:36;9.90;99.90
37646;DHT22;23489;49.600;6.138;2022-10-31T04:42:20;9.90;99.90
37646;DHT22;23489;49.600;6.138;2022-10-31T04:44:46;9.90;99.90
37646;DHT22;23489;49.600;6.138;2022-10-31T04:47:13;10.00;99.90
37646;DHT22;23489;49.600;6.138;2022-10-31T04:49:38;10.00;99.90
37646;DHT22;23489;49.600;6.138;2022-10-31T04:52:04;9.90;99.90
37646;DHT22;23489;49.600;6.138;2022-10-31T04:54:30;9.90;99.90
37646;DHT22;23489;49.600;6.138;2022-10-31T04:57:14;9.90;99.90
37646;DHT22;23489;49.600;6.138;2022-10-31T04:59:42;9.90;99.90
37646;DHT22;23489;49.600;6.138;2022-10-31T05:02:07;9.90;99.90
37646;DHT22;23489;49.600;6.138;2022-10-31T05:04:44;9.90;99.90
37646;DHT22;23489;49.600;6.138;2022-10-31T05:07:10;9.90;99.90
37646;DHT22;23489;49.600;6.138;2022-10-31T05:09:35;10.00;99.90
37646;DHT22;23489;49.600;6.138;2022-10-31T05:12:01;10.00;99.90
37646;DHT22;23489;49.600;6.138;2022-10-31T05:14:47;9.90;99.90
37646;DHT22;23489;49.600;6.138;2022-10-31T05:17:31;10.00;99.90
37646;DHT22;23489;49.600;6.138;2022-10-31T05:20:20;9.90;99.90
37646;DHT22;23489;49.600;6.138;2022-10-31T05:23:04;9.90;99.90
37646;DHT22;23489;49.600;6.138;2022-10-31T05:25:31;9.90;99.90
37646;DHT22;23489;49.600;6.138;2022-10-31T05:28:02;9.90;99.90
37646;DHT22;23489;49.600;6.138;2022-10-31T05:30:30;9.80;99.90
37646;DHT22;23489;49.600;6.138;2022-10-31T05:32:57;9.80;99.90
37646;DHT22;23489;49.600;6.138;2022-10-31T05:35:41;9.70;99.90
37646;DHT22;23489;49.600;6.138;2022-10-31T05:38:22;9.70;99.90
37646;DHT22;23489;49.600;6.138;2022-10-31T05:40:48;9.70;99.90
37646;DHT22;23489;49.600;6.138;2022-10-31T05:43:14;9.70;99.90
37646;DHT22;23489;49.600;6.138;2022-10-31T05:45:40;9.70;99.90
37646;DHT22;23489;49.600;6.138;2022-10-31T05:48:13;9.70;99.90
37646;DHT22;23489;49.600;6.138;2022-10-31T05:50:57;9.80;99.90
37646;DHT22;23489;49.600;6.138;2022-10-31T05:53:24;9.80;99.90
37646;DHT22;23489;49.600;6.138;2022-10-31T05:55:50;9.80;99.90
37646;DHT22;23489;49.600;6.138;2022-10-31T05:58:20;9.80;99.90
37646;DHT22;23489;49.600;6.138;2022-10-31T06:01:05;9.80;99.90
37646;DHT22;23489;49.600;6.138;2022-10-31T06:03:32;9.80;99.90
37646;DHT22;23489;49.600;6.138;2022-10-31T06:06:00;9.80;99.90
37646;DHT22;23489;49.600;6.138;2022-10-31T06:08:31;9.90;99.90
37646;DHT22;23489;49.600;6.138;2022-10-31T06:11:01;9.90;99.90
37646;DHT22;23489;49.600;6.138;2022-10-31T06:13:45;10.00;99.90
37646;DHT22;23489;49.600;6.138;2022-10-31T06:16:24;10.10;99.90
37646;DHT22;23489;49.600;6.138;2022-10-31T06:18:51;10.10;99.90
37646;DHT22;23489;49.600;6.138;2022-10-31T06:21:17;10.10;99.90
37646;DHT22;23489;49.600;6.138;2022-10-31T06:23:43;10.10;99.90
37646;DHT22;23489;49.600;6.138;2022-10-31T06:26:24;10.10;99.90
37646;DHT22;23489;49.600;6.138;2022-10-31T06:28:52;10.10;99.90
37646;DHT22;23489;49.600;6.138;2022-10-31T06:31:46;10.10;99.90
37646;DHT22;23489;49.600;6.138;2022-10-31T06:34:12;10.10;99.90
37646;DHT22;23489;49.600;6.138;2022-10-31T06:36:37;10.10;99.90
37646;DHT22;23489;49.600;6.138;2022-10-31T06:39:03;10.10;99.90
37646;DHT22;23489;49.600;6.138;2022-10-31T06:41:29;10.10;99.90
37646;DHT22;23489;49.600;6.138;2022-10-31T06:43:56;10.10;99.90
37646;DHT22;23489;49.600;6.138;2022-10-31T06:46:50;10.10;99.90
37646;DHT22;23489;49.600;6.138;2022-10-31T06:49:34;10.20;99.90
37646;DHT22;23489;49.600;6.138;2022-10-31T06:52:06;10.20;99.90
37646;DHT22;23489;49.600;6.138;2022-10-31T06:54:32;10.30;99.90
37646;DHT22;23489;49.600;6.138;2022-10-31T06:56:58;10.30;99.90
37646;DHT22;23489;49.600;6.138;2022-10-31T06:59:24;10.30;99.90
37646;DHT22;23489;49.600;6.138;2022-10-31T07:02:09;10.40;99.90
37646;DHT22;23489;49.600;6.138;2022-10-31T07:04:36;10.50;99.90
37646;DHT22;23489;49.600;6.138;2022-10-31T07:07:02;10.50;99.90
37646;DHT22;23489;49.600;6.138;2022-10-31T07:09:28;10.50;99.90
37646;DHT22;23489;49.600;6.138;2022-10-31T07:11:56;10.50;99.90
37646;DHT22;23489;49.600;6.138;2022-10-31T07:14:22;10.60;99.90
37646;DHT22;23489;49.600;6.138;2022-10-31T07:16:49;10.70;99.90
37646;DHT22;23489;49.600;6.138;2022-10-31T07:19:16;10.70;99.90
37646;DHT22;23489;49.600;6.138;2022-10-31T07:21:42;10.80;99.90
37646;DHT22;23489;49.600;6.138;2022-10-31T07:24:09;10.80;99.90
37646;DHT22;23489;49.600;6.138;2022-10-31T07:26:57;10.90;99.90
37646;DHT22;23489;49.600;6.138;2022-10-31T07:29:23;11.00;99.90
37646;DHT22;23489;49.600;6.138;2022-10-31T07:31:49;11.10;99.90
37646;DHT22;23489;49.600;6.138;2022-10-31T07:34:21;11.20;99.90
37646;DHT22;23489;49.600;6.138;2022-10-31T07:37:05;11.40;99.90
37646;DHT22;23489;49.600;6.138;2022-10-31T07:39:31;11.50;99.90
37646;DHT22;23489;49.600;6.138;2022-10-31T07:41:58;11.60;99.90
37646;DHT22;23489;49.600;6.138;2022-10-31T07:44:24;11.70;99.90
37646;DHT22;23489;49.600;6.138;2022-10-31T07:47:08;11.70;99.90
37646;DHT22;23489;49.600;6.138;2022-10-31T07:49:57;11.80;99.90
37646;DHT22;23489;49.600;6.138;2022-10-31T07:52:45;11.90;99.90
37646;DHT22;23489;49.600;6.138;2022-10-31T07:55:29;11.90;99.90
37646;DHT22;23489;49.600;6.138;2022-10-31T07:58:01;12.00;99.90
37646;DHT22;23489;49.600;6.138;2022-10-31T08:00:27;12.10;99.90
37646;DHT22;23489;49.600;6.138;2022-10-31T08:02:59;12.10;99.90
37646;DHT22;23489;49.600;6.138;2022-10-31T08:05:51;12.20;99.90
37646;DHT22;23489;49.600;6.138;2022-10-31T08:08:42;12.30;99.90
37646;DHT22;23489;49.600;6.138;2022-10-31T08:11:08;12.40;99.90
37646;DHT22;23489;49.600;6.138;2022-10-31T08:13:34;12.60;99.90
37646;DHT22;23489;49.600;6.138;2022-10-31T08:16:00;12.70;99.90
37646;DHT22;23489;49.600;6.138;2022-10-31T08:18:32;12.80;99.90
37646;DHT22;23489;49.600;6.138;2022-10-31T08:20:58;12.90;99.90
37646;DHT22;23489;49.600;6.138;2022-10-31T08:23:23;12.90;99.90
37646;DHT22;23489;49.600;6.138;2022-10-31T08:25:51;12.90;99.90
37646;DHT22;23489;49.600;6.138;2022-10-31T08:28:17;13.00;99.90
37646;DHT22;23489;49.600;6.138;2022-10-31T08:30:45;13.00;99.90
37646;DHT22;23489;49.600;6.138;2022-10-31T08:33:34;13.00;99.90
37646;DHT22;23489;49.600;6.138;2022-10-31T08:36:18;13.10;99.90
37646;DHT22;23489;49.600;6.138;2022-10-31T08:39:00;13.10;99.90
37646;DHT22;23489;49.600;6.138;2022-10-31T08:41:27;13.20;99.90
37646;DHT22;23489;49.600;6.138;2022-10-31T08:43:53;13.20;99.90
37646;DHT22;23489;49.600;6.138;2022-10-31T08:46:19;13.10;99.90
37646;DHT22;23489;49.600;6.138;2022-10-31T08:48:49;13.10;99.90
37646;DHT22;23489;49.600;6.138;2022-10-31T08:51:16;13.20;99.90
37646;DHT22;23489;49.600;6.138;2022-10-31T08:53:42;13.30;99.90
37646;DHT22;23489;49.600;6.138;2022-10-31T08:56:20;13.30;99.90
37646;DHT22;23489;49.600;6.138;2022-10-31T08:58:48;13.40;99.90
37646;DHT22;23489;49.600;6.138;2022-10-31T09:01:13;13.50;99.90
37646;DHT22;23489;49.600;6.138;2022-10-31T09:03:42;13.70;99.90
37646;DHT22;23489;49.600;6.138;2022-10-31T09:06:09;13.90;99.90
37646;DHT22;23489;49.600;6.138;2022-10-31T09:08:36;14.00;99.90
37646;DHT22;23489;49.600;6.138;2022-10-31T09:11:02;14.30;99.90
37646;DHT22;23489;49.600;6.138;2022-10-31T09:13:59;14.50;99.90
37646;DHT22;23489;49.600;6.138;2022-10-31T09:16:51;14.60;99.90
37646;DHT22;23489;49.600;6.138;2022-10-31T09:19:21;14.70;99.90
37646;DHT22;23489;49.600;6.138;2022-10-31T09:21:47;14.80;99.90
37646;DHT22;23489;49.600;6.138;2022-10-31T09:24:12;15.00;99.90
37646;DHT22;23489;49.600;6.138;2022-10-31T09:26:40;15.20;99.90
37646;DHT22;23489;49.600;6.138;2022-10-31T09:29:13;15.40;99.90
37646;DHT22;23489;49.600;6.138;2022-10-31T09:31:38;15.50;99.90
37646;DHT22;23489;49.600;6.138;2022-10-31T09:34:09;15.60;99.90
37646;DHT22;23489;49.600;6.138;2022-10-31T09:36:36;15.60;99.90
37646;DHT22;23489;49.600;6.138;2022-10-31T09:39:03;15.70;99.90
37646;DHT22;23489;49.600;6.138;2022-10-31T09:44:21;15.70;99.90
37646;DHT22;23489;49.600;6.138;2022-10-31T09:46:55;15.70;99.90
37646;DHT22;23489;49.600;6.138;2022-10-31T09:52:04;15.90;99.90
37646;DHT22;23489;49.600;6.138;2022-10-31T09:57:07;16.40;99.90
37646;DHT22;23489;49.600;6.138;2022-10-31T09:59:37;16.50;99.90
37646;DHT22;23489;49.600;6.138;2022-10-31T10:02:15;16.60;99.90
37646;DHT22;23489;49.600;6.138;2022-10-31T10:10:00;16.80;99.90
37646;DHT22;23489;49.600;6.138;2022-10-31T10:15:50;16.70;99.90
37646;DHT22;23489;49.600;6.138;2022-10-31T10:18:24;16.70;99.90
37646;DHT22;23489;49.600;6.138;2022-10-31T10:26:17;16.70;99.90
37646;DHT22;23489;49.600;6.138;2022-10-31T10:28:45;16.70;99.90
37646;DHT22;23489;49.600;6.138;2022-10-31T10:31:15;16.80;99.90
37646;DHT22;23489;49.600;6.138;2022-10-31T10:36:09;16.90;99.90
37646;DHT22;23489;49.600;6.138;2022-10-31T10:41:12;17.00;99.90
37646;DHT22;23489;49.600;6.138;2022-10-31T10:43:39;17.00;99.90
37646;DHT22;23489;49.600;6.138;2022-10-31T10:49:12;17.20;99.90
37646;DHT22;23489;49.600;6.138;2022-10-31T10:51:47;17.20;99.90
37646;DHT22;23489;49.600;6.138;2022-10-31T10:59:32;17.10;99.90
37646;DHT22;23489;49.600;6.138;2022-10-31T11:01:58;17.10;99.90
37646;DHT22;23489;49.600;6.138;2022-10-31T11:04:33;17.00;99.90
37646;DHT22;23489;49.600;6.138;2022-10-31T11:07:04;17.00;99.90
37646;DHT22;23489;49.600;6.138;2022-10-31T11:09:30;17.00;99.90
37646;DHT22;23489;49.600;6.138;2022-10-31T11:11:55;17.00;99.90
37646;DHT22;23489;49.600;6.138;2022-10-31T11:14:21;17.00;99.90
37646;DHT22;23489;49.600;6.138;2022-10-31T11:16:55;17.00;99.90
37646;DHT22;23489;49.600;6.138;2022-10-31T11:19:21;17.10;99.90
37646;DHT22;23489;49.600;6.138;2022-10-31T11:21:48;17.00;99.90
37646;DHT22;23489;49.600;6.138;2022-10-31T11:24:18;16.80;99.90
37646;DHT22;23489;49.600;6.138;2022-10-31T11:26:45;16.80;99.90
37646;DHT22;23489;49.600;6.138;2022-10-31T11:29:13;16.80;99.90
37646;DHT22;23489;49.600;6.138;2022-10-31T11:31:39;16.80;99.90
37646;DHT22;23489;49.600;6.138;2022-10-31T11:34:05;16.70;99.90
37646;DHT22;23489;49.600;6.138;2022-10-31T11:36:33;16.60;99.90
37646;DHT22;23489;49.600;6.138;2022-10-31T11:39:01;16.60;99.90
37646;DHT22;23489;49.600;6.138;2022-10-31T11:41:28;16.50;99.90
37646;DHT22;23489;49.600;6.138;2022-10-31T11:43:58;16.40;99.90
37646;DHT22;23489;49.600;6.138;2022-10-31T11:48:51;16.40;99.90
37646;DHT22;23489;49.600;6.138;2022-10-31T11:51:24;16.50;99.90
37646;DHT22;23489;49.600;6.138;2022-10-31T11:53:51;16.60;99.90
37646;DHT22;23489;49.600;6.138;2022-10-31T11:56:17;16.60;99.90
37646;DHT22;23489;49.600;6.138;2022-10-31T11:58:43;16.80;99.90
37646;DHT22;23489;49.600;6.138;2022-10-31T12:01:21;16.90;99.90
37646;DHT22;23489;49.600;6.138;2022-10-31T12:04:07;16.80;99.90
37646;DHT22;23489;49.600;6.138;2022-10-31T12:06:37;16.70;99.90
37646;DHT22;23489;49.600;6.138;2022-10-31T12:09:36;16.80;99.90
37646;DHT22;23489;49.600;6.138;2022-10-31T12:19:46;16.90;99.90
37646;DHT22;23489;49.600;6.138;2022-10-31T12:30:23;17.20;99.90
37646;DHT22;23489;49.600;6.138;2022-10-31T12:33:02;17.40;99.90
37646;DHT22;23489;49.600;6.138;2022-10-31T12:46:11;17.20;99.90
37646;DHT22;23489;49.600;6.138;2022-10-31T12:51:08;17.50;99.90
37646;DHT22;23489;49.600;6.138;2022-10-31T12:58:31;18.10;99.90
37646;DHT22;23489;49.600;6.138;2022-10-31T13:01:03;18.30;99.90
37646;DHT22;23489;49.600;6.138;2022-10-31T13:06:32;18.40;99.90
37646;DHT22;23489;49.600;6.138;2022-10-31T13:09:01;18.40;99.90
37646;DHT22;23489;49.600;6.138;2022-10-31T13:11:29;18.40;99.90
37646;DHT22;23489;49.600;6.138;2022-10-31T13:14:22;18.30;99.90
37646;DHT22;23489;49.600;6.138;2022-10-31T13:16:46;18.20;99.90
37646;DHT22;23489;49.600;6.138;2022-10-31T13:19:20;18.00;99.90
37646;DHT22;23489;49.600;6.138;2022-10-31T13:24:20;17.80;99.90
37646;DHT22;23489;49.600;6.138;2022-10-31T13:26:51;17.80;99.90
37646;DHT22;23489;49.600;6.138;2022-10-31T13:31:42;17.80;99.90
37646;DHT22;23489;49.600;6.138;2022-10-31T13:34:30;17.80;99.90
37646;DHT22;23489;49.600;6.138;2022-10-31T13:39:36;18.00;99.90
37646;DHT22;23489;49.600;6.138;2022-10-31T13:42:10;18.00;99.90
37646;DHT22;23489;49.600;6.138;2022-10-31T13:44:39;18.10;99.90
37646;DHT22;23489;49.600;6.138;2022-10-31T13:47:20;18.10;99.90
37646;DHT22;23489;49.600;6.138;2022-10-31T13:49:45;18.10;99.90
37646;DHT22;23489;49.600;6.138;2022-10-31T13:54:44;18.00;99.90
37646;DHT22;23489;49.600;6.138;2022-10-31T13:57:15;17.90;99.90
37646;DHT22;23489;49.600;6.138;2022-10-31T13:59:46;17.90;99.90
37646;DHT22;23489;49.600;6.138;2022-10-31T14:02:14;18.00;99.90
37646;DHT22;23489;49.600;6.138;2022-10-31T14:07:12;18.20;99.90
37646;DHT22;23489;49.600;6.138;2022-10-31T14:12:22;18.20;99.90
37646;DHT22;23489;49.600;6.138;2022-10-31T14:14:49;18.20;99.90
37646;DHT22;23489;49.600;6.138;2022-10-31T14:17:17;18.10;99.90
37646;DHT22;23489;49.600;6.138;2022-10-31T14:19:55;18.10;99.90
37646;DHT22;23489;49.600;6.138;2022-10-31T14:22:21;18.00;99.90
37646;DHT22;23489;49.600;6.138;2022-10-31T14:24:47;18.00;99.90
37646;DHT22;23489;49.600;6.138;2022-10-31T14:29:44;18.00;99.90
37646;DHT22;23489;49.600;6.138;2022-10-31T14:34:40;17.90;99.90
37646;DHT22;23489;49.600;6.138;2022-10-31T14:37:11;17.90;99.90
37646;DHT22;23489;49.600;6.138;2022-10-31T14:47:17;17.90;99.90
37646;DHT22;23489;49.600;6.138;2022-10-31T14:52:14;17.90;99.90
37646;DHT22;23489;49.600;6.138;2022-10-31T14:54:41;17.80;99.90
37646;DHT22;23489;49.600;6.138;2022-10-31T14:57:16;17.80;99.90
37646;DHT22;23489;49.600;6.138;2022-10-31T14:59:43;17.80;99.90
37646;DHT22;23489;49.600;6.138;2022-10-31T15:02:18;17.70;99.90
37646;DHT22;23489;49.600;6.138;2022-10-31T15:04:45;17.60;99.90
37646;DHT22;23489;49.600;6.138;2022-10-31T15:07:21;17.60;99.90
37646;DHT22;23489;49.600;6.138;2022-10-31T15:10:01;17.60;99.90
37646;DHT22;23489;49.600;6.138;2022-10-31T15:12:31;17.50;99.90
37646;DHT22;23489;49.600;6.138;2022-10-31T15:14:57;17.40;99.90
37646;DHT22;23489;49.600;6.138;2022-10-31T15:17:24;17.30;99.90
37646;DHT22;23489;49.600;6.138;2022-10-31T15:19:50;17.20;99.90
37646;DHT22;23489;49.600;6.138;2022-10-31T15:22:17;17.20;99.90
37646;DHT22;23489;49.600;6.138;2022-10-31T15:24:43;17.10;99.90
37646;DHT22;23489;49.600;6.138;2022-10-31T15:27:15;17.10;99.90
37646;DHT22;23489;49.600;6.138;2022-10-31T15:29:52;17.00;99.90
37646;DHT22;23489;49.600;6.138;2022-10-31T15:32:25;17.00;99.90
37646;DHT22;23489;49.600;6.138;2022-10-31T15:34:51;16.90;99.90
37646;DHT22;23489;49.600;6.138;2022-10-31T15:37:18;16.80;99.90
37646;DHT22;23489;49.600;6.138;2022-10-31T15:39:44;16.80;99.90
37646;DHT22;23489;49.600;6.138;2022-10-31T15:44:45;16.70;99.90
37646;DHT22;23489;49.600;6.138;2022-10-31T15:47:15;16.60;99.90
37646;DHT22;23489;49.600;6.138;2022-10-31T15:49:42;16.50;99.90
37646;DHT22;23489;49.600;6.138;2022-10-31T15:54:41;16.40;99.90
37646;DHT22;23489;49.600;6.138;2022-10-31T15:57:10;16.30;99.90
37646;DHT22;23489;49.600;6.138;2022-10-31T15:59:36;16.20;99.90
37646;DHT22;23489;49.600;6.138;2022-10-31T16:02:07;16.10;99.90
37646;DHT22;23489;49.600;6.138;2022-10-31T16:04:34;16.00;99.90
37646;DHT22;23489;49.600;6.138;2022-10-31T16:07:00;16.00;99.90
37646;DHT22;23489;49.600;6.138;2022-10-31T16:09:27;15.90;99.90
37646;DHT22;23489;49.600;6.138;2022-10-31T16:11:52;15.90;99.90
37646;DHT22;23489;49.600;6.138;2022-10-31T16:14:23;15.80;99.90
37646;DHT22;23489;49.600;6.138;2022-10-31T16:16:50;15.80;99.90
37646;DHT22;23489;49.600;6.138;2022-10-31T16:19:29;15.70;99.90
37646;DHT22;23489;49.600;6.138;2022-10-31T16:22:02;15.70;99.90
37646;DHT22;23489;49.600;6.138;2022-10-31T16:24:30;15.60;99.90
37646;DHT22;23489;49.600;6.138;2022-10-31T16:27:04;15.50;99.90
37646;DHT22;23489;49.600;6.138;2022-10-31T16:29:43;15.50;99.90
37646;DHT22;23489;49.600;6.138;2022-10-31T16:37:40;15.30;99.90
37646;DHT22;23489;49.600;6.138;2022-10-31T16:40:06;15.30;99.90
37646;DHT22;23489;49.600;6.138;2022-10-31T16:42:32;15.20;99.90
37646;DHT22;23489;49.600;6.138;2022-10-31T16:44:58;15.20;99.90
37646;DHT22;23489;49.600;6.138;2022-10-31T16:47:24;15.20;99.90
37646;DHT22;23489;49.600;6.138;2022-10-31T16:49:49;15.20;99.90
37646;DHT22;23489;49.600;6.138;2022-10-31T16:52:15;15.10;99.90
37646;DHT22;23489;49.600;6.138;2022-10-31T16:54:41;15.10;99.90
37646;DHT22;23489;49.600;6.138;2022-10-31T16:57:06;15.10;99.90
37646;DHT22;23489;49.600;6.138;2022-10-31T16:59:35;15.00;99.90
37646;DHT22;23489;49.600;6.138;2022-10-31T17:02:00;15.00;99.90
37646;DHT22;23489;49.600;6.138;2022-10-31T17:04:27;15.00;99.90
37646;DHT22;23489;49.600;6.138;2022-10-31T17:06:53;14.90;99.90
37646;DHT22;23489;49.600;6.138;2022-10-31T17:09:18;14.90;99.90
37646;DHT22;23489;49.600;6.138;2022-10-31T17:11:45;14.80;99.90
37646;DHT22;23489;49.600;6.138;2022-10-31T17:14:11;14.80;99.90
37646;DHT22;23489;49.600;6.138;2022-10-31T17:16:36;14.70;99.90
37646;DHT22;23489;49.600;6.138;2022-10-31T17:19:02;14.70;99.90
37646;DHT22;23489;49.600;6.138;2022-10-31T17:21:28;14.60;99.90
37646;DHT22;23489;49.600;6.138;2022-10-31T17:23:54;14.60;99.90
37646;DHT22;23489;49.600;6.138;2022-10-31T17:26:19;14.60;99.90
37646;DHT22;23489;49.600;6.138;2022-10-31T17:28:45;14.60;99.90
37646;DHT22;23489;49.600;6.138;2022-10-31T17:31:18;14.60;99.90
37646;DHT22;23489;49.600;6.138;2022-10-31T17:33:44;14.50;99.90
37646;DHT22;23489;49.600;6.138;2022-10-31T17:36:09;14.40;99.90
37646;DHT22;23489;49.600;6.138;2022-10-31T17:38:36;14.40;99.90
37646;DHT22;23489;49.600;6.138;2022-10-31T17:41:04;14.40;99.90
37646;DHT22;23489;49.600;6.138;2022-10-31T17:43:29;14.40;99.90
37646;DHT22;23489;49.600;6.138;2022-10-31T17:45:57;14.40;99.90
37646;DHT22;23489;49.600;6.138;2022-10-31T17:48:23;14.30;99.90
37646;DHT22;23489;49.600;6.138;2022-10-31T17:50:48;14.30;99.90
37646;DHT22;23489;49.600;6.138;2022-10-31T17:53:14;14.30;99.90
37646;DHT22;23489;49.600;6.138;2022-10-31T17:55:39;14.30;99.90
37646;DHT22;23489;49.600;6.138;2022-10-31T17:58:05;14.20;99.90
37646;DHT22;23489;49.600;6.138;2022-10-31T18:00:31;14.20;99.90
37646;DHT22;23489;49.600;6.138;2022-10-31T18:02:56;14.20;99.90
37646;DHT22;23489;49.600;6.138;2022-10-31T18:05:22;14.20;99.90
37646;DHT22;23489;49.600;6.138;2022-10-31T18:07:48;14.10;99.90
37646;DHT22;23489;49.600;6.138;2022-10-31T18:10:14;14.00;99.90
37646;DHT22;23489;49.600;6.138;2022-10-31T18:12:39;14.00;99.90
37646;DHT22;23489;49.600;6.138;2022-10-31T18:15:05;13.90;99.90